sensor_id;sensor_type;location;lat;lon;timestamp;temperature;humidity
50548;DHT22;38013;48.810;8.818;2023-04-06T00:00:55;2.70;55.00
50548;DHT22;38013;48.810;8.818;2023-04-06T00:03:22;2.70;55.20
50548;DHT22;38013;48.810;8.818;2023-04-06T00:05:49;2.70;55.20
50548;DHT22;38013;48.810;8.818;2023-04-06T00:08:17;2.70;55.20
50548;DHT22;38013;48.810;8.818;2023-04-06T00:10:44;2.70;55.20
50548;DHT22;38013;48.810;8.818;2023-04-06T00:13:11;2.60;55.20
50548;DHT22;38013;48.810;8.818;2023-04-06T00:15:38;2.60;55.30
50548;DHT22;38013;48.810;8.818;2023-04-06T00:18:04;2.60;55.40
50548;DHT22;38013;48.810;8.818;2023-04-06T00:20:31;2.60;55.50
50548;DHT22;38013;48.810;8.818;2023-04-06T00:22:58;2.50;55.70
50548;DHT22;38013;48.810;8.818;2023-04-06T00:25:25;2.50;55.80
50548;DHT22;38013;48.810;8.818;2023-04-06T00:27:52;2.50;55.90
50548;DHT22;38013;48.810;8.818;2023-04-06T00:30:19;2.50;55.90
50548;DHT22;38013;48.810;8.818;2023-04-06T00:32:46;2.50;55.90
50548;DHT22;38013;48.810;8.818;2023-04-06T00:35:13;2.40;55.90
50548;DHT22;38013;48.810;8.818;2023-04-06T00:37:41;2.40;56.00
50548;DHT22;38013;48.810;8.818;2023-04-06T00:40:09;2.50;56.00
50548;DHT22;38013;48.810;8.818;2023-04-06T00:42:36;2.40;56.10
50548;DHT22;38013;48.810;8.818;2023-04-06T00:45:03;2.40;56.10
50548;DHT22;38013;48.810;8.818;2023-04-06T00:47:30;2.30;56.10
50548;DHT22;38013;48.810;8.818;2023-04-06T00:49:57;2.30;56.10
50548;DHT22;38013;48.810;8.818;2023-04-06T00:52:24;2.30;56.10
50548;DHT22;38013;48.810;8.818;2023-04-06T00:54:52;2.30;56.20
50548;DHT22;38013;48.810;8.818;2023-04-06T00:57:21;2.30;56.30
50548;DHT22;38013;48.810;8.818;2023-04-06T00:59:53;2.20;56.30
50548;DHT22;38013;48.810;8.818;2023-04-06T01:02:21;2.20;56.40
50548;DHT22;38013;48.810;8.818;2023-04-06T01:04:52;2.20;56.40
50548;DHT22;38013;48.810;8.818;2023-04-06T01:07:30;2.20;56.40
50548;DHT22;38013;48.810;8.818;2023-04-06T01:10:08;2.20;56.30
50548;DHT22;38013;48.810;8.818;2023-04-06T01:12:36;2.10;56.40
50548;DHT22;38013;48.810;8.818;2023-04-06T01:15:15;2.10;56.50
50548;DHT22;38013;48.810;8.818;2023-04-06T01:17:47;2.10;56.50
50548;DHT22;38013;48.810;8.818;2023-04-06T01:20:16;2.10;56.60
50548;DHT22;38013;48.810;8.818;2023-04-06T01:22:43;2.10;56.70
50548;DHT22;38013;48.810;8.818;2023-04-06T01:25:11;2.00;56.90
50548;DHT22;38013;48.810;8.818;2023-04-06T01:27:50;2.00;57.00
50548;DHT22;38013;48.810;8.818;2023-04-06T01:30:23;2.00;57.00
50548;DHT22;38013;48.810;8.818;2023-04-06T01:32:55;2.00;57.00
50548;DHT22;38013;48.810;8.818;2023-04-06T01:35:37;1.90;57.00
50548;DHT22;38013;48.810;8.818;2023-04-06T01:38:14;1.90;57.00
50548;DHT22;38013;48.810;8.818;2023-04-06T01:40:41;1.90;57.10
50548;DHT22;38013;48.810;8.818;2023-04-06T01:43:09;1.90;57.20
50548;DHT22;38013;48.810;8.818;2023-04-06T01:45:54;1.90;57.20
50548;DHT22;38013;48.810;8.818;2023-04-06T01:48:26;1.80;57.10
50548;DHT22;38013;48.810;8.818;2023-04-06T01:50:54;1.80;57.10
50548;DHT22;38013;48.810;8.818;2023-04-06T01:53:27;1.80;57.10
50548;DHT22;38013;48.810;8.818;2023-04-06T01:56:00;1.80;57.10
50548;DHT22;38013;48.810;8.818;2023-04-06T01:58:53;1.70;57.10
50548;DHT22;38013;48.810;8.818;2023-04-06T02:01:20;1.70;57.10
50548;DHT22;38013;48.810;8.818;2023-04-06T02:03:53;1.70;57.20
50548;DHT22;38013;48.810;8.818;2023-04-06T02:06:21;1.70;57.40
50548;DHT22;38013;48.810;8.818;2023-04-06T02:08:48;1.70;57.40
50548;DHT22;38013;48.810;8.818;2023-04-06T02:11:15;1.70;57.40
50548;DHT22;38013;48.810;8.818;2023-04-06T02:13:46;1.70;57.50
50548;DHT22;38013;48.810;8.818;2023-04-06T02:16:14;1.70;57.70
50548;DHT22;38013;48.810;8.818;2023-04-06T02:18:44;1.70;57.80
50548;DHT22;38013;48.810;8.818;2023-04-06T02:21:11;1.70;57.90
50548;DHT22;38013;48.810;8.818;2023-04-06T02:23:39;1.70;57.70
50548;DHT22;38013;48.810;8.818;2023-04-06T02:26:05;1.60;57.50
50548;DHT22;38013;48.810;8.818;2023-04-06T02:28:32;1.60;57.50
50548;DHT22;38013;48.810;8.818;2023-04-06T02:31:00;1.60;57.70
50548;DHT22;38013;48.810;8.818;2023-04-06T02:33:27;1.60;57.80
50548;DHT22;38013;48.810;8.818;2023-04-06T02:35:54;1.60;57.80
50548;DHT22;38013;48.810;8.818;2023-04-06T02:38:22;1.60;57.70
50548;DHT22;38013;48.810;8.818;2023-04-06T02:40:51;1.50;57.70
50548;DHT22;38013;48.810;8.818;2023-04-06T02:43:21;1.50;58.30
50548;DHT22;38013;48.810;8.818;2023-04-06T02:45:52;1.50;57.80
50548;DHT22;38013;48.810;8.818;2023-04-06T02:48:21;1.50;57.90
50548;DHT22;38013;48.810;8.818;2023-04-06T02:50:48;1.50;57.90
50548;DHT22;38013;48.810;8.818;2023-04-06T02:53:15;1.50;58.00
50548;DHT22;38013;48.810;8.818;2023-04-06T02:55:42;1.50;58.10
50548;DHT22;38013;48.810;8.818;2023-04-06T02:58:08;1.40;58.10
50548;DHT22;38013;48.810;8.818;2023-04-06T03:00:43;1.40;58.10
50548;DHT22;38013;48.810;8.818;2023-04-06T03:03:10;1.40;58.20
50548;DHT22;38013;48.810;8.818;2023-04-06T03:05:37;1.40;58.30
50548;DHT22;38013;48.810;8.818;2023-04-06T03:08:05;1.40;58.30
50548;DHT22;38013;48.810;8.818;2023-04-06T03:10:39;1.40;58.50
50548;DHT22;38013;48.810;8.818;2023-04-06T03:13:08;1.30;58.50
50548;DHT22;38013;48.810;8.818;2023-04-06T03:15:49;1.30;58.60
50548;DHT22;38013;48.810;8.818;2023-04-06T03:18:22;1.30;58.60
50548;DHT22;38013;48.810;8.818;2023-04-06T03:20:51;1.30;58.70
50548;DHT22;38013;48.810;8.818;2023-04-06T03:23:22;1.20;58.40
50548;DHT22;38013;48.810;8.818;2023-04-06T03:25:53;1.20;58.50
50548;DHT22;38013;48.810;8.818;2023-04-06T03:28:20;1.20;58.60
50548;DHT22;38013;48.810;8.818;2023-04-06T03:30:54;1.10;58.70
50548;DHT22;38013;48.810;8.818;2023-04-06T03:33:40;1.10;58.70
50548;DHT22;38013;48.810;8.818;2023-04-06T03:36:10;1.10;59.40
50548;DHT22;38013;48.810;8.818;2023-04-06T03:38:40;1.00;58.90
50548;DHT22;38013;48.810;8.818;2023-04-06T03:41:11;1.00;60.30
50548;DHT22;38013;48.810;8.818;2023-04-06T03:43:41;1.00;58.30
50548;DHT22;38013;48.810;8.818;2023-04-06T03:46:08;1.00;58.60
50548;DHT22;38013;48.810;8.818;2023-04-06T03:48:35;0.90;58.70
50548;DHT22;38013;48.810;8.818;2023-04-06T03:51:05;0.90;58.70
50548;DHT22;38013;48.810;8.818;2023-04-06T03:53:31;0.90;58.80
50548;DHT22;38013;48.810;8.818;2023-04-06T03:55:58;0.90;58.90
50548;DHT22;38013;48.810;8.818;2023-04-06T03:58:27;0.90;58.90
50548;DHT22;38013;48.810;8.818;2023-04-06T04:00:54;0.90;59.00
50548;DHT22;38013;48.810;8.818;2023-04-06T04:03:21;0.90;59.00
50548;DHT22;38013;48.810;8.818;2023-04-06T04:05:50;0.90;59.10
50548;DHT22;38013;48.810;8.818;2023-04-06T04:08:17;0.90;59.10
50548;DHT22;38013;48.810;8.818;2023-04-06T04:10:44;0.90;59.10
50548;DHT22;38013;48.810;8.818;2023-04-06T04:13:12;0.80;59.10
50548;DHT22;38013;48.810;8.818;2023-04-06T04:15:42;0.80;59.20
50548;DHT22;38013;48.810;8.818;2023-04-06T04:18:09;0.80;59.20
50548;DHT22;38013;48.810;8.818;2023-04-06T04:20:39;0.80;59.20
50548;DHT22;38013;48.810;8.818;2023-04-06T04:23:07;0.80;59.20
50548;DHT22;38013;48.810;8.818;2023-04-06T04:25:34;0.80;59.30
50548;DHT22;38013;48.810;8.818;2023-04-06T04:28:02;0.80;59.30
50548;DHT22;38013;48.810;8.818;2023-04-06T04:30:30;0.80;59.40
50548;DHT22;38013;48.810;8.818;2023-04-06T04:32:57;0.70;59.40
50548;DHT22;38013;48.810;8.818;2023-04-06T04:35:24;0.70;59.40
50548;DHT22;38013;48.810;8.818;2023-04-06T04:37:51;0.70;59.40
50548;DHT22;38013;48.810;8.818;2023-04-06T04:40:18;0.70;59.40
50548;DHT22;38013;48.810;8.818;2023-04-06T04:43:02;0.70;59.30
50548;DHT22;38013;48.810;8.818;2023-04-06T04:45:33;0.70;59.20
50548;DHT22;38013;48.810;8.818;2023-04-06T04:48:10;0.70;59.30
50548;DHT22;38013;48.810;8.818;2023-04-06T04:50:50;0.60;59.30
50548;DHT22;38013;48.810;8.818;2023-04-06T04:53:20;0.70;59.30
50548;DHT22;38013;48.810;8.818;2023-04-06T04:55:50;0.70;59.30
50548;DHT22;38013;48.810;8.818;2023-04-06T04:58:18;0.70;59.40
50548;DHT22;38013;48.810;8.818;2023-04-06T05:00:54;0.70;59.40
50548;DHT22;38013;48.810;8.818;2023-04-06T05:03:25;0.70;59.60
50548;DHT22;38013;48.810;8.818;2023-04-06T05:06:03;0.70;60.00
50548;DHT22;38013;48.810;8.818;2023-04-06T05:08:33;0.70;59.70
50548;DHT22;38013;48.810;8.818;2023-04-06T05:11:01;0.60;59.70
50548;DHT22;38013;48.810;8.818;2023-04-06T05:13:32;0.70;59.90
50548;DHT22;38013;48.810;8.818;2023-04-06T05:16:04;0.70;59.80
50548;DHT22;38013;48.810;8.818;2023-04-06T05:18:33;0.70;59.70
50548;DHT22;38013;48.810;8.818;2023-04-06T05:21:01;0.70;59.80
50548;DHT22;38013;48.810;8.818;2023-04-06T05:23:38;0.70;59.90
50548;DHT22;38013;48.810;8.818;2023-04-06T05:26:05;0.70;59.90
50548;DHT22;38013;48.810;8.818;2023-04-06T05:28:33;0.70;60.00
50548;DHT22;38013;48.810;8.818;2023-04-06T05:31:03;0.70;60.00
50548;DHT22;38013;48.810;8.818;2023-04-06T05:33:38;0.70;59.90
50548;DHT22;38013;48.810;8.818;2023-04-06T05:36:09;0.70;60.10
50548;DHT22;38013;48.810;8.818;2023-04-06T05:38:42;0.70;60.20
50548;DHT22;38013;48.810;8.818;2023-04-06T05:41:26;0.80;60.40
50548;DHT22;38013;48.810;8.818;2023-04-06T05:43:53;0.80;60.40
50548;DHT22;38013;48.810;8.818;2023-04-06T05:46:19;0.80;60.60
50548;DHT22;38013;48.810;8.818;2023-04-06T05:48:47;0.80;60.60
50548;DHT22;38013;48.810;8.818;2023-04-06T05:51:15;0.90;60.70
50548;DHT22;38013;48.810;8.818;2023-04-06T05:53:47;0.90;60.70
50548;DHT22;38013;48.810;8.818;2023-04-06T05:56:14;1.00;60.90
50548;DHT22;38013;48.810;8.818;2023-04-06T05:58:42;1.00;60.90
50548;DHT22;38013;48.810;8.818;2023-04-06T06:01:12;1.00;61.00
50548;DHT22;38013;48.810;8.818;2023-04-06T06:03:43;1.10;61.10
50548;DHT22;38013;48.810;8.818;2023-04-06T06:06:10;1.10;61.00
50548;DHT22;38013;48.810;8.818;2023-04-06T06:09:15;1.20;61.00
50548;DHT22;38013;48.810;8.818;2023-04-06T06:11:58;1.20;60.80
50548;DHT22;38013;48.810;8.818;2023-04-06T06:14:26;1.30;60.70
50548;DHT22;38013;48.810;8.818;2023-04-06T06:16:55;1.30;60.60
50548;DHT22;38013;48.810;8.818;2023-04-06T06:19:22;1.30;60.70
50548;DHT22;38013;48.810;8.818;2023-04-06T06:21:53;1.30;60.70
50548;DHT22;38013;48.810;8.818;2023-04-06T06:24:20;1.40;60.80
50548;DHT22;38013;48.810;8.818;2023-04-06T06:26:49;1.40;60.80
50548;DHT22;38013;48.810;8.818;2023-04-06T06:29:17;1.50;60.80
50548;DHT22;38013;48.810;8.818;2023-04-06T06:31:44;1.50;60.70
50548;DHT22;38013;48.810;8.818;2023-04-06T06:34:11;1.60;60.80
50548;DHT22;38013;48.810;8.818;2023-04-06T06:36:40;1.60;60.70
50548;DHT22;38013;48.810;8.818;2023-04-06T06:39:10;1.70;60.80
50548;DHT22;38013;48.810;8.818;2023-04-06T06:41:38;1.70;60.80
50548;DHT22;38013;48.810;8.818;2023-04-06T06:44:05;1.80;60.90
50548;DHT22;38013;48.810;8.818;2023-04-06T06:46:34;1.90;61.00
50548;DHT22;38013;48.810;8.818;2023-04-06T06:49:01;1.90;61.00
50548;DHT22;38013;48.810;8.818;2023-04-06T06:51:27;2.00;61.00
50548;DHT22;38013;48.810;8.818;2023-04-06T06:53:54;2.10;61.00
50548;DHT22;38013;48.810;8.818;2023-04-06T06:56:21;2.20;61.10
50548;DHT22;38013;48.810;8.818;2023-04-06T06:58:50;2.30;61.10
50548;DHT22;38013;48.810;8.818;2023-04-06T07:01:17;2.30;61.10
50548;DHT22;38013;48.810;8.818;2023-04-06T07:03:44;2.50;61.20
50548;DHT22;38013;48.810;8.818;2023-04-06T07:06:11;2.50;61.10
50548;DHT22;38013;48.810;8.818;2023-04-06T07:08:39;2.60;61.00
50548;DHT22;38013;48.810;8.818;2023-04-06T07:11:06;2.70;61.00
50548;DHT22;38013;48.810;8.818;2023-04-06T07:13:33;2.90;61.00
50548;DHT22;38013;48.810;8.818;2023-04-06T07:16:01;3.00;60.90
50548;DHT22;38013;48.810;8.818;2023-04-06T07:18:28;3.10;60.90
50548;DHT22;38013;48.810;8.818;2023-04-06T07:20:55;3.20;60.90
50548;DHT22;38013;48.810;8.818;2023-04-06T07:23:22;3.30;60.70
50548;DHT22;38013;48.810;8.818;2023-04-06T07:25:49;3.40;60.60
50548;DHT22;38013;48.810;8.818;2023-04-06T07:28:18;3.50;60.60
50548;DHT22;38013;48.810;8.818;2023-04-06T07:30:45;3.70;60.60
50548;DHT22;38013;48.810;8.818;2023-04-06T07:33:12;3.80;60.50
50548;DHT22;38013;48.810;8.818;2023-04-06T07:35:40;3.90;60.40
50548;DHT22;38013;48.810;8.818;2023-04-06T07:38:09;4.00;60.30
50548;DHT22;38013;48.810;8.818;2023-04-06T07:40:36;4.20;60.10
50548;DHT22;38013;48.810;8.818;2023-04-06T07:43:03;4.30;60.10
50548;DHT22;38013;48.810;8.818;2023-04-06T07:45:30;4.40;60.10
50548;DHT22;38013;48.810;8.818;2023-04-06T07:47:59;4.50;60.10
50548;DHT22;38013;48.810;8.818;2023-04-06T07:50:27;4.70;60.10
50548;DHT22;38013;48.810;8.818;2023-04-06T07:52:54;4.80;59.90
50548;DHT22;38013;48.810;8.818;2023-04-06T07:55:22;4.90;59.90
50548;DHT22;38013;48.810;8.818;2023-04-06T07:57:49;5.10;60.00
50548;DHT22;38013;48.810;8.818;2023-04-06T08:00:17;5.20;59.80
50548;DHT22;38013;48.810;8.818;2023-04-06T08:02:44;5.30;59.80
50548;DHT22;38013;48.810;8.818;2023-04-06T08:05:11;5.50;59.80
50548;DHT22;38013;48.810;8.818;2023-04-06T08:07:38;5.60;59.60
50548;DHT22;38013;48.810;8.818;2023-04-06T08:10:05;5.80;59.40
50548;DHT22;38013;48.810;8.818;2023-04-06T08:12:33;5.90;59.40
50548;DHT22;38013;48.810;8.818;2023-04-06T08:15:00;6.10;59.30
50548;DHT22;38013;48.810;8.818;2023-04-06T08:17:28;6.20;59.00
50548;DHT22;38013;48.810;8.818;2023-04-06T08:19:57;6.40;58.80
50548;DHT22;38013;48.810;8.818;2023-04-06T08:22:24;6.50;58.30
50548;DHT22;38013;48.810;8.818;2023-04-06T08:24:51;6.70;58.00
50548;DHT22;38013;48.810;8.818;2023-04-06T08:27:18;6.80;57.50
50548;DHT22;38013;48.810;8.818;2023-04-06T08:29:45;7.00;57.20
50548;DHT22;38013;48.810;8.818;2023-04-06T08:32:11;7.20;56.90
50548;DHT22;38013;48.810;8.818;2023-04-06T08:34:38;7.30;56.50
50548;DHT22;38013;48.810;8.818;2023-04-06T08:37:06;7.50;56.30
50548;DHT22;38013;48.810;8.818;2023-04-06T08:39:33;7.60;56.00
50548;DHT22;38013;48.810;8.818;2023-04-06T08:42:01;7.80;55.90
50548;DHT22;38013;48.810;8.818;2023-04-06T08:44:31;7.90;55.50
50548;DHT22;38013;48.810;8.818;2023-04-06T08:46:59;8.10;55.10
50548;DHT22;38013;48.810;8.818;2023-04-06T08:49:26;8.30;54.30
50548;DHT22;38013;48.810;8.818;2023-04-06T08:51:55;8.40;54.00
50548;DHT22;38013;48.810;8.818;2023-04-06T08:54:22;8.60;53.30
50548;DHT22;38013;48.810;8.818;2023-04-06T08:56:49;8.70;52.80
50548;DHT22;38013;48.810;8.818;2023-04-06T08:59:17;8.90;52.30
50548;DHT22;38013;48.810;8.818;2023-04-06T09:01:44;9.00;51.90
50548;DHT22;38013;48.810;8.818;2023-04-06T09:04:12;9.20;51.80
50548;DHT22;38013;48.810;8.818;2023-04-06T09:06:40;9.30;51.30
50548;DHT22;38013;48.810;8.818;2023-04-06T09:09:08;9.50;51.20
50548;DHT22;38013;48.810;8.818;2023-04-06T09:11:51;9.60;50.60
50548;DHT22;38013;48.810;8.818;2023-04-06T09:14:38;9.70;49.40
50548;DHT22;38013;48.810;8.818;2023-04-06T09:17:05;9.90;48.40
50548;DHT22;38013;48.810;8.818;2023-04-06T09:19:32;10.00;49.20
50548;DHT22;38013;48.810;8.818;2023-04-06T09:22:06;10.10;48.90
50548;DHT22;38013;48.810;8.818;2023-04-06T09:24:52;10.30;48.20
50548;DHT22;38013;48.810;8.818;2023-04-06T09:27:31;10.40;47.50
50548;DHT22;38013;48.810;8.818;2023-04-06T09:30:06;10.50;47.60
50548;DHT22;38013;48.810;8.818;2023-04-06T09:32:52;10.70;47.10
50548;DHT22;38013;48.810;8.818;2023-04-06T09:35:21;10.80;46.50
50548;DHT22;38013;48.810;8.818;2023-04-06T09:37:50;10.90;47.10
50548;DHT22;38013;48.810;8.818;2023-04-06T09:40:18;11.00;46.80
50548;DHT22;38013;48.810;8.818;2023-04-06T09:42:46;11.10;46.50
50548;DHT22;38013;48.810;8.818;2023-04-06T09:45:14;11.30;46.30
50548;DHT22;38013;48.810;8.818;2023-04-06T09:47:45;11.40;46.10
50548;DHT22;38013;48.810;8.818;2023-04-06T09:50:13;11.60;45.60
50548;DHT22;38013;48.810;8.818;2023-04-06T09:52:47;11.70;45.80
50548;DHT22;38013;48.810;8.818;2023-04-06T09:55:40;11.90;45.20
50548;DHT22;38013;48.810;8.818;2023-04-06T09:58:13;12.00;44.50
50548;DHT22;38013;48.810;8.818;2023-04-06T10:01:03;12.20;44.70
50548;DHT22;38013;48.810;8.818;2023-04-06T10:03:52;12.30;44.10
50548;DHT22;38013;48.810;8.818;2023-04-06T10:06:27;12.50;43.60
50548;DHT22;38013;48.810;8.818;2023-04-06T10:08:56;12.70;43.90
50548;DHT22;38013;48.810;8.818;2023-04-06T10:11:24;12.80;43.70
50548;DHT22;38013;48.810;8.818;2023-04-06T10:13:51;12.90;43.60
50548;DHT22;38013;48.810;8.818;2023-04-06T10:16:18;13.10;43.30
50548;DHT22;38013;48.810;8.818;2023-04-06T10:18:50;13.20;42.60
50548;DHT22;38013;48.810;8.818;2023-04-06T10:21:24;13.30;42.20
50548;DHT22;38013;48.810;8.818;2023-04-06T10:23:59;13.40;42.30
50548;DHT22;38013;48.810;8.818;2023-04-06T10:26:27;13.60;41.80
50548;DHT22;38013;48.810;8.818;2023-04-06T10:28:54;13.70;42.20
50548;DHT22;38013;48.810;8.818;2023-04-06T10:31:26;13.80;42.20
50548;DHT22;38013;48.810;8.818;2023-04-06T10:33:59;14.00;41.30
50548;DHT22;38013;48.810;8.818;2023-04-06T10:36:31;14.10;41.70
50548;DHT22;38013;48.810;8.818;2023-04-06T10:39:04;14.20;41.30
50548;DHT22;38013;48.810;8.818;2023-04-06T10:41:40;14.30;40.20
50548;DHT22;38013;48.810;8.818;2023-04-06T10:44:20;14.50;40.10
50548;DHT22;38013;48.810;8.818;2023-04-06T10:46:59;14.60;39.80
50548;DHT22;38013;48.810;8.818;2023-04-06T10:49:29;14.70;39.80
50548;DHT22;38013;48.810;8.818;2023-04-06T10:51:56;14.80;40.50
50548;DHT22;38013;48.810;8.818;2023-04-06T10:54:25;15.00;40.10
50548;DHT22;38013;48.810;8.818;2023-04-06T10:56:53;15.10;39.80
50548;DHT22;38013;48.810;8.818;2023-04-06T10:59:21;15.20;41.20
50548;DHT22;38013;48.810;8.818;2023-04-06T11:01:48;15.40;39.90
50548;DHT22;38013;48.810;8.818;2023-04-06T11:04:17;15.50;39.50
50548;DHT22;38013;48.810;8.818;2023-04-06T11:06:48;15.60;38.90
50548;DHT22;38013;48.810;8.818;2023-04-06T11:09:29;15.70;37.70
50548;DHT22;38013;48.810;8.818;2023-04-06T11:11:58;15.90;37.20
50548;DHT22;38013;48.810;8.818;2023-04-06T11:14:25;15.90;38.20
50548;DHT22;38013;48.810;8.818;2023-04-06T11:16:53;16.00;38.10
50548;DHT22;38013;48.810;8.818;2023-04-06T11:19:20;16.10;38.50
50548;DHT22;38013;48.810;8.818;2023-04-06T11:21:48;16.10;37.60
50548;DHT22;38013;48.810;8.818;2023-04-06T11:24:22;16.20;37.90
50548;DHT22;38013;48.810;8.818;2023-04-06T11:26:57;16.30;37.50
50548;DHT22;38013;48.810;8.818;2023-04-06T11:29:29;16.50;37.60
50548;DHT22;38013;48.810;8.818;2023-04-06T11:31:59;16.60;36.90
50548;DHT22;38013;48.810;8.818;2023-04-06T11:34:30;16.80;37.40
50548;DHT22;38013;48.810;8.818;2023-04-06T11:36:59;16.90;37.40
50548;DHT22;38013;48.810;8.818;2023-04-06T11:39:29;17.00;37.50
50548;DHT22;38013;48.810;8.818;2023-04-06T11:42:00;17.30;37.20
50548;DHT22;38013;48.810;8.818;2023-04-06T11:44:39;17.50;36.20
50548;DHT22;38013;48.810;8.818;2023-04-06T11:47:12;17.60;35.40
50548;DHT22;38013;48.810;8.818;2023-04-06T11:49:41;17.80;36.30
50548;DHT22;38013;48.810;8.818;2023-04-06T11:52:23;17.90;35.60
50548;DHT22;38013;48.810;8.818;2023-04-06T11:54:53;18.00;34.10
50548;DHT22;38013;48.810;8.818;2023-04-06T11:57:21;18.10;35.20
50548;DHT22;38013;48.810;8.818;2023-04-06T11:59:52;18.10;35.20
50548;DHT22;38013;48.810;8.818;2023-04-06T12:02:19;18.20;35.10
50548;DHT22;38013;48.810;8.818;2023-04-06T12:04:46;18.20;34.90
50548;DHT22;38013;48.810;8.818;2023-04-06T12:07:13;18.30;34.70
50548;DHT22;38013;48.810;8.818;2023-04-06T12:09:41;18.30;34.60
50548;DHT22;38013;48.810;8.818;2023-04-06T12:12:09;18.40;34.20
50548;DHT22;38013;48.810;8.818;2023-04-06T12:14:36;18.50;34.30
50548;DHT22;38013;48.810;8.818;2023-04-06T12:17:03;18.50;34.00
50548;DHT22;38013;48.810;8.818;2023-04-06T12:19:30;18.60;33.90
50548;DHT22;38013;48.810;8.818;2023-04-06T12:21:58;18.70;33.80
50548;DHT22;38013;48.810;8.818;2023-04-06T12:24:25;18.70;33.30
50548;DHT22;38013;48.810;8.818;2023-04-06T12:26:53;18.80;33.40
50548;DHT22;38013;48.810;8.818;2023-04-06T12:29:34;18.80;33.20
50548;DHT22;38013;48.810;8.818;2023-04-06T12:32:01;18.90;33.10
50548;DHT22;38013;48.810;8.818;2023-04-06T12:34:28;19.00;33.30
50548;DHT22;38013;48.810;8.818;2023-04-06T12:36:55;19.10;33.10
50548;DHT22;38013;48.810;8.818;2023-04-06T12:39:23;19.20;33.40
50548;DHT22;38013;48.810;8.818;2023-04-06T12:41:50;19.20;32.70
50548;DHT22;38013;48.810;8.818;2023-04-06T12:44:17;19.30;32.30
50548;DHT22;38013;48.810;8.818;2023-04-06T12:46:44;19.20;32.00
50548;DHT22;38013;48.810;8.818;2023-04-06T12:49:11;19.20;32.10
50548;DHT22;38013;48.810;8.818;2023-04-06T12:51:38;19.10;31.80
50548;DHT22;38013;48.810;8.818;2023-04-06T12:54:05;19.00;31.80
50548;DHT22;38013;48.810;8.818;2023-04-06T12:56:32;19.00;31.70
50548;DHT22;38013;48.810;8.818;2023-04-06T12:58:59;18.90;31.80
50548;DHT22;38013;48.810;8.818;2023-04-06T13:01:26;18.80;32.00
50548;DHT22;38013;48.810;8.818;2023-04-06T13:03:56;18.70;31.90
50548;DHT22;38013;48.810;8.818;2023-04-06T13:06:23;18.70;32.00
50548;DHT22;38013;48.810;8.818;2023-04-06T13:08:54;18.60;32.50
50548;DHT22;38013;48.810;8.818;2023-04-06T13:11:21;18.50;32.40
50548;DHT22;38013;48.810;8.818;2023-04-06T13:13:52;18.50;32.10
50548;DHT22;38013;48.810;8.818;2023-04-06T13:16:19;18.50;32.20
50548;DHT22;38013;48.810;8.818;2023-04-06T13:18:47;18.50;32.20
50548;DHT22;38013;48.810;8.818;2023-04-06T13:21:14;18.40;32.40
50548;DHT22;38013;48.810;8.818;2023-04-06T13:23:42;18.40;32.10
50548;DHT22;38013;48.810;8.818;2023-04-06T13:26:10;18.30;32.60
50548;DHT22;38013;48.810;8.818;2023-04-06T13:28:37;18.40;32.80
50548;DHT22;38013;48.810;8.818;2023-04-06T13:31:07;18.40;32.80
50548;DHT22;38013;48.810;8.818;2023-04-06T13:33:34;18.60;33.80
50548;DHT22;38013;48.810;8.818;2023-04-06T13:36:02;18.70;32.80
50548;DHT22;38013;48.810;8.818;2023-04-06T13:38:29;18.80;32.80
50548;DHT22;38013;48.810;8.818;2023-04-06T13:40:56;18.90;32.50
50548;DHT22;38013;48.810;8.818;2023-04-06T13:43:24;19.00;32.70
50548;DHT22;38013;48.810;8.818;2023-04-06T13:45:53;19.20;32.80
50548;DHT22;38013;48.810;8.818;2023-04-06T13:48:25;19.30;32.40
50548;DHT22;38013;48.810;8.818;2023-04-06T13:50:52;19.40;33.30
50548;DHT22;38013;48.810;8.818;2023-04-06T13:53:19;19.50;33.30
50548;DHT22;38013;48.810;8.818;2023-04-06T13:55:55;19.60;33.00
50548;DHT22;38013;48.810;8.818;2023-04-06T13:58:22;19.70;32.00
50548;DHT22;38013;48.810;8.818;2023-04-06T14:00:49;19.70;31.90
50548;DHT22;38013;48.810;8.818;2023-04-06T14:03:17;19.60;32.40
50548;DHT22;38013;48.810;8.818;2023-04-06T14:05:47;19.50;32.30
50548;DHT22;38013;48.810;8.818;2023-04-06T14:08:13;19.30;32.20
50548;DHT22;38013;48.810;8.818;2023-04-06T14:10:41;19.20;32.60
50548;DHT22;38013;48.810;8.818;2023-04-06T14:13:11;19.20;32.10
50548;DHT22;38013;48.810;8.818;2023-04-06T14:15:39;19.10;31.80
50548;DHT22;38013;48.810;8.818;2023-04-06T14:18:06;19.10;32.80
50548;DHT22;38013;48.810;8.818;2023-04-06T14:20:34;19.00;32.20
50548;DHT22;38013;48.810;8.818;2023-04-06T14:23:02;18.90;32.40
50548;DHT22;38013;48.810;8.818;2023-04-06T14:25:29;18.90;32.60
50548;DHT22;38013;48.810;8.818;2023-04-06T14:27:58;18.90;33.40
50548;DHT22;38013;48.810;8.818;2023-04-06T14:30:25;18.70;33.70
50548;DHT22;38013;48.810;8.818;2023-04-06T14:32:52;18.60;33.50
50548;DHT22;38013;48.810;8.818;2023-04-06T14:35:19;18.40;33.70
50548;DHT22;38013;48.810;8.818;2023-04-06T14:37:47;18.20;33.50
50548;DHT22;38013;48.810;8.818;2023-04-06T14:40:14;18.00;33.50
50548;DHT22;38013;48.810;8.818;2023-04-06T14:42:41;17.90;33.80
50548;DHT22;38013;48.810;8.818;2023-04-06T14:45:08;17.80;34.00
50548;DHT22;38013;48.810;8.818;2023-04-06T14:47:35;17.60;33.70
50548;DHT22;38013;48.810;8.818;2023-04-06T14:50:02;17.40;33.90
50548;DHT22;38013;48.810;8.818;2023-04-06T14:52:29;17.30;34.30
50548;DHT22;38013;48.810;8.818;2023-04-06T14:54:58;17.10;34.20
50548;DHT22;38013;48.810;8.818;2023-04-06T14:57:25;17.10;34.70
50548;DHT22;38013;48.810;8.818;2023-04-06T14:59:54;17.00;35.20
50548;DHT22;38013;48.810;8.818;2023-04-06T15:02:21;16.90;35.10
50548;DHT22;38013;48.810;8.818;2023-04-06T15:04:48;16.80;35.10
50548;DHT22;38013;48.810;8.818;2023-04-06T15:07:17;16.80;35.40
50548;DHT22;38013;48.810;8.818;2023-04-06T15:09:43;16.80;35.30
50548;DHT22;38013;48.810;8.818;2023-04-06T15:12:10;16.80;35.50
50548;DHT22;38013;48.810;8.818;2023-04-06T15:14:37;16.70;35.60
50548;DHT22;38013;48.810;8.818;2023-04-06T15:17:04;16.70;35.70
50548;DHT22;38013;48.810;8.818;2023-04-06T15:19:31;16.70;35.70
50548;DHT22;38013;48.810;8.818;2023-04-06T15:21:58;16.60;35.30
50548;DHT22;38013;48.810;8.818;2023-04-06T15:24:26;16.60;35.40
50548;DHT22;38013;48.810;8.818;2023-04-06T15:26:53;16.60;35.00
50548;DHT22;38013;48.810;8.818;2023-04-06T15:29:20;16.50;35.30
50548;DHT22;38013;48.810;8.818;2023-04-06T15:31:47;16.50;34.80
50548;DHT22;38013;48.810;8.818;2023-04-06T15:34:14;16.40;35.40
50548;DHT22;38013;48.810;8.818;2023-04-06T15:36:41;16.30;34.60
50548;DHT22;38013;48.810;8.818;2023-04-06T15:39:09;16.30;35.20
50548;DHT22;38013;48.810;8.818;2023-04-06T15:41:36;16.30;35.20
50548;DHT22;38013;48.810;8.818;2023-04-06T15:44:03;16.30;34.90
50548;DHT22;38013;48.810;8.818;2023-04-06T15:46:30;16.30;34.40
50548;DHT22;38013;48.810;8.818;2023-04-06T15:48:57;16.30;34.70
50548;DHT22;38013;48.810;8.818;2023-04-06T15:51:24;16.30;34.20
50548;DHT22;38013;48.810;8.818;2023-04-06T15:53:51;16.30;34.00